createdAt,value
2022-12-11T00:01:33.946Z,100.00
2022-12-11T00:04:36.710Z,100.00
2022-12-11T00:07:39.181Z,100.00
2022-12-11T00:10:48.735Z,100.00
2022-12-11T00:13:51.257Z,100.00
2022-12-11T00:16:54.141Z,100.00
2022-12-11T00:19:58.858Z,100.00
2022-12-11T00:23:02.433Z,100.00
2022-12-11T00:26:09.429Z,100.00
2022-12-11T00:29:15.953Z,100.00
2022-12-11T00:32:18.451Z,100.00
2022-12-11T00:35:21.504Z,100.00
2022-12-11T00:38:24.346Z,100.00
2022-12-11T00:41:27.373Z,100.00
2022-12-11T00:44:29.840Z,100.00
2022-12-11T00:47:32.654Z,100.00
2022-12-11T00:50:36.226Z,100.00
2022-12-11T00:53:39.712Z,100.00
2022-12-11T00:56:42.693Z,100.00
2022-12-11T00:59:45.502Z,100.00
2022-12-11T01:02:48.746Z,100.00
2022-12-11T01:05:55.318Z,100.00
2022-12-11T01:09:16.461Z,100.00
2022-12-11T01:12:19.343Z,100.00
2022-12-11T01:15:24.065Z,100.00
2022-12-11T01:18:27.669Z,100.00
2022-12-11T01:21:30.338Z,100.00
2022-12-11T01:24:33.557Z,100.00
2022-12-11T01:27:37.587Z,100.00
2022-12-11T01:30:43.013Z,100.00
2022-12-11T01:33:45.714Z,100.00
2022-12-11T01:36:48.532Z,100.00
2022-12-11T01:39:51.379Z,100.00
2022-12-11T01:42:54.182Z,100.00
2022-12-11T01:45:56.669Z,100.00
2022-12-11T01:49:01.183Z,100.00
2022-12-11T01:52:09.225Z,100.00
2022-12-11T01:55:12.776Z,100.00
2022-12-11T01:58:17.440Z,100.00
2022-12-11T02:01:47.984Z,100.00
2022-12-11T02:04:51.996Z,100.00
2022-12-11T02:07:58.853Z,100.00
2022-12-11T02:11:20.089Z,100.00
2022-12-11T02:14:55.914Z,100.00
2022-12-11T02:18:23.878Z,100.00
2022-12-11T02:21:35.709Z,100.00
2022-12-11T02:25:03.590Z,100.00
2022-12-11T02:28:15.231Z,100.00
2022-12-11T02:31:49.702Z,100.00
2022-12-11T02:35:07.988Z,100.00
2022-12-11T02:38:16.867Z,100.00
2022-12-11T02:41:21.902Z,100.00
2022-12-11T02:44:29.527Z,100.00
2022-12-11T02:47:33.556Z,100.00
2022-12-11T02:50:42.605Z,100.00
2022-12-11T02:53:46.748Z,100.00
2022-12-11T02:57:06.398Z,100.00
2022-12-11T03:00:09.690Z,100.00
2022-12-11T03:03:13.277Z,100.00
2022-12-11T03:06:20.446Z,100.00
2022-12-11T03:09:23.700Z,100.00
2022-12-11T03:12:33.185Z,100.00
2022-12-11T03:16:13.425Z,100.00
2022-12-11T03:19:36.274Z,100.00
2022-12-11T03:22:57.202Z,100.00
2022-12-11T03:26:06.401Z,100.00
2022-12-11T03:29:23.228Z,100.00
2022-12-11T03:32:35.619Z,100.00
2022-12-11T03:35:48.717Z,100.00
2022-12-11T03:39:02.244Z,100.00
2022-12-11T03:42:10.061Z,100.00
2022-12-11T03:45:14.616Z,100.00
2022-12-11T03:48:20.140Z,100.00
2022-12-11T03:51:24.794Z,100.00
2022-12-11T03:54:28.405Z,100.00
2022-12-11T03:57:35.139Z,100.00
2022-12-11T04:00:38.501Z,100.00
2022-12-11T04:03:42.639Z,100.00
2022-12-11T04:06:45.369Z,100.00
2022-12-11T04:09:48.614Z,100.00
2022-12-11T04:12:51.383Z,100.00
2022-12-11T04:15:54.523Z,100.00
2022-12-11T04:19:16.284Z,100.00
2022-12-11T04:22:38.521Z,100.00
2022-12-11T04:25:41.215Z,100.00
2022-12-11T04:28:47.190Z,100.00
2022-12-11T04:31:50.729Z,100.00
2022-12-11T04:34:53.527Z,100.00
2022-12-11T04:37:56.166Z,100.00
2022-12-11T04:41:05.141Z,100.00
2022-12-11T04:44:08.306Z,100.00
2022-12-11T04:47:11.458Z,100.00
2022-12-11T04:50:17.858Z,100.00
2022-12-11T04:53:23.141Z,100.00
2022-12-11T04:56:25.742Z,100.00
2022-12-11T04:59:28.625Z,100.00
2022-12-11T05:02:35.211Z,100.00
2022-12-11T05:05:38.108Z,100.00
2022-12-11T05:08:42.411Z,100.00
2022-12-11T05:11:45.280Z,100.00
2022-12-11T05:14:47.853Z,100.00
2022-12-11T05:17:50.760Z,100.00
2022-12-11T05:21:01.320Z,100.00
2022-12-11T05:24:04.553Z,100.00
2022-12-11T05:27:07.598Z,100.00
2022-12-11T05:30:12.389Z,100.00
2022-12-11T05:33:15.020Z,100.00
2022-12-11T05:36:24.528Z,100.00
2022-12-11T05:39:27.170Z,100.00
2022-12-11T05:42:32.289Z,100.00
2022-12-11T05:45:34.875Z,100.00
2022-12-11T05:48:38.517Z,100.00
2022-12-11T05:51:42.162Z,100.00
2022-12-11T05:54:44.963Z,100.00
2022-12-11T05:57:47.463Z,100.00
2022-12-11T06:00:50.210Z,100.00
2022-12-11T06:03:54.250Z,100.00
2022-12-11T06:06:56.790Z,100.00
2022-12-11T06:09:59.587Z,100.00
2022-12-11T06:13:06.613Z,100.00
2022-12-11T06:16:10.820Z,100.00
2022-12-11T06:19:15.306Z,100.00
2022-12-11T06:22:18.218Z,100.00
2022-12-11T06:25:20.804Z,100.00
2022-12-11T06:28:23.819Z,100.00
2022-12-11T06:31:26.550Z,100.00
2022-12-11T06:34:29.526Z,100.00
2022-12-11T06:37:32.073Z,100.00
2022-12-11T06:40:34.980Z,100.00
2022-12-11T06:43:42.244Z,100.00
2022-12-11T06:46:45.555Z,100.00
2022-12-11T06:49:48.534Z,100.00
2022-12-11T06:52:51.518Z,100.00
2022-12-11T06:55:53.977Z,100.00
2022-12-11T06:59:05.699Z,100.00
2022-12-11T07:02:13.564Z,100.00
2022-12-11T07:05:16.710Z,100.00
2022-12-11T07:08:19.846Z,100.00
2022-12-11T07:11:23.547Z,100.00
2022-12-11T07:14:26.184Z,100.00
2022-12-11T07:17:29.998Z,100.00
2022-12-11T07:20:37.774Z,100.00
2022-12-11T07:23:41.549Z,100.00
2022-12-11T07:26:44.187Z,100.00
2022-12-11T07:29:47.053Z,100.00
2022-12-11T07:32:50.238Z,100.00
2022-12-11T07:35:53.258Z,100.00
2022-12-11T07:38:56.549Z,100.00
2022-12-11T07:41:59.739Z,100.00
2022-12-11T07:45:09.128Z,100.00
2022-12-11T07:48:13.714Z,100.00
2022-12-11T07:51:30.629Z,100.00
2022-12-11T07:54:33.922Z,100.00
2022-12-11T07:57:37.454Z,100.00
2022-12-11T08:00:45.298Z,100.00
2022-12-11T08:03:49.267Z,100.00
2022-12-11T08:06:51.848Z,100.00
2022-12-11T08:09:54.752Z,100.00
2022-12-11T08:12:57.424Z,100.00
2022-12-11T08:16:09.824Z,100.00
2022-12-11T08:19:13.124Z,100.00
2022-12-11T08:22:16.137Z,100.00
2022-12-11T08:25:18.880Z,100.00
2022-12-11T08:28:21.684Z,100.00
2022-12-11T08:31:30.943Z,100.00
2022-12-11T08:34:34.062Z,100.00
2022-12-11T08:37:38.503Z,100.00
2022-12-11T08:40:41.690Z,100.00
2022-12-11T08:43:44.810Z,100.00
2022-12-11T08:46:48.155Z,100.00
2022-12-11T08:49:51.674Z,100.00
2022-12-11T08:52:59.540Z,100.00
2022-12-11T08:56:13.589Z,100.00
2022-12-11T08:59:17.513Z,100.00
2022-12-11T09:02:23.174Z,100.00
2022-12-11T09:05:26.544Z,99.83
2022-12-11T09:08:29.928Z,99.79
2022-12-11T09:11:35.747Z,97.87
2022-12-11T09:14:38.295Z,95.91
2022-12-11T09:17:41.220Z,94.32
2022-12-11T09:20:44.033Z,96.75
2022-12-11T09:23:49.319Z,98.55
2022-12-11T09:26:52.150Z,94.85
2022-12-11T09:29:55.065Z,98.46
2022-12-11T09:32:57.618Z,98.27
2022-12-11T09:36:02.830Z,98.27
2022-12-11T09:39:07.514Z,97.56
2022-12-11T09:42:31.571Z,96.86
2022-12-11T09:45:34.165Z,98.74
2022-12-11T09:48:38.603Z,96.37
2022-12-11T09:51:51.340Z,92.94
2022-12-11T09:55:02.533Z,92.80
2022-12-11T09:58:27.487Z,92.68
2022-12-11T10:01:46.020Z,95.11
2022-12-11T10:05:15.303Z,94.56
2022-12-11T10:08:43.362Z,93.77
2022-12-11T10:11:56.892Z,92.71
2022-12-11T10:15:18.915Z,91.91
2022-12-11T10:18:25.527Z,93.06
2022-12-11T10:21:36.922Z,91.08
2022-12-11T10:28:17.144Z,93.58
2022-12-11T10:31:29.710Z,95.63
2022-12-11T10:34:44.167Z,94.71
2022-12-11T10:37:47.080Z,94.56
2022-12-11T10:41:11.934Z,94.68
2022-12-11T10:44:23.778Z,94.87
2022-12-11T10:47:27.081Z,92.71
2022-12-11T10:50:30.483Z,92.60
2022-12-11T10:53:34.318Z,92.19
2022-12-11T10:56:38.182Z,93.58
2022-12-11T10:59:43.674Z,92.22
2022-12-11T11:02:46.910Z,94.42
2022-12-11T11:05:50.777Z,94.39
2022-12-11T11:08:57.458Z,93.43
2022-12-11T11:12:06.017Z,92.80
2022-12-11T11:15:14.456Z,93.50
2022-12-11T11:18:26.582Z,91.65
2022-12-11T11:21:31.879Z,93.02
2022-12-11T11:24:47.968Z,93.84
2022-12-11T11:28:15.578Z,91.92
2022-12-11T11:31:21.213Z,93.92
2022-12-11T11:34:26.192Z,93.65
2022-12-11T11:37:34.432Z,93.64
2022-12-11T11:40:43.145Z,94.39
2022-12-11T11:43:53.124Z,91.09
2022-12-11T11:47:01.038Z,90.12
2022-12-11T11:50:22.728Z,89.95
2022-12-11T11:53:38.026Z,89.25
2022-12-11T11:56:40.473Z,90.75
2022-12-11T11:59:49.924Z,90.76
2022-12-11T12:03:01.287Z,91.44
2022-12-11T12:06:32.302Z,93.15
2022-12-11T12:09:54.010Z,91.58
2022-12-11T12:13:30.178Z,92.37
2022-12-11T12:17:14.297Z,91.15
2022-12-11T12:20:32.702Z,92.12
2022-12-11T12:23:53.666Z,90.69
2022-12-11T12:27:17.584Z,92.89
2022-12-11T12:30:36.854Z,92.28
2022-12-11T12:33:58.282Z,94.87
2022-12-11T12:37:25.622Z,93.19
2022-12-11T12:41:01.091Z,92.51
2022-12-11T12:44:13.587Z,91.96
2022-12-11T12:47:18.514Z,92.23
2022-12-11T12:50:26.422Z,92.25
2022-12-11T12:53:35.918Z,90.38
2022-12-11T12:56:40.695Z,89.40
2022-12-11T12:59:54.474Z,90.15
2022-12-11T13:03:13.027Z,89.74
2022-12-11T13:06:16.146Z,90.04
2022-12-11T13:09:28.094Z,90.00
2022-12-11T13:12:43.944Z,90.14
2022-12-11T13:15:46.968Z,91.43
2022-12-11T13:18:49.875Z,91.08
2022-12-11T13:22:11.122Z,90.97
2022-12-11T13:25:31.227Z,89.77
2022-12-11T13:28:39.938Z,88.89
2022-12-11T13:31:45.483Z,89.14
2022-12-11T13:34:58.529Z,89.96
2022-12-11T13:38:15.711Z,88.82
2022-12-11T13:41:22.204Z,88.14
2022-12-11T13:44:30.677Z,90.76
2022-12-11T13:47:46.292Z,89.51
2022-12-11T13:50:52.171Z,89.07
2022-12-11T13:54:17.339Z,87.99
2022-12-11T13:57:22.929Z,88.76
2022-12-11T14:00:30.435Z,89.45
2022-12-11T14:03:34.063Z,91.71
2022-12-11T14:06:38.937Z,90.60
2022-12-11T14:09:46.580Z,89.48
2022-12-11T14:12:57.620Z,89.56
2022-12-11T14:16:01.486Z,90.11
2022-12-11T14:19:07.906Z,90.62
2022-12-11T14:22:19.601Z,89.78
2022-12-11T14:25:26.668Z,90.55
2022-12-11T14:28:45.138Z,90.45
2022-12-11T14:31:51.268Z,89.95
2022-12-11T14:34:55.418Z,90.87
2022-12-11T14:38:02.576Z,91.11
2022-12-11T14:41:28.242Z,90.67
2022-12-11T14:44:38.738Z,91.83
2022-12-11T14:47:46.105Z,90.35
2022-12-11T14:50:55.104Z,92.18
2022-12-11T14:53:58.868Z,91.74
2022-12-11T14:57:06.622Z,92.12
2022-12-11T15:00:22.304Z,92.02
2022-12-11T15:03:34.326Z,91.95
2022-12-11T15:06:49.685Z,93.29
2022-12-11T15:09:58.977Z,93.80
2022-12-11T15:13:07.172Z,92.99
2022-12-11T15:16:23.176Z,93.76
2022-12-11T15:19:36.527Z,93.48
2022-12-11T15:22:44.591Z,93.62
2022-12-11T15:25:57.969Z,93.91
2022-12-11T15:29:04.408Z,92.81
2022-12-11T15:32:14.192Z,94.02
2022-12-11T15:35:26.182Z,94.31
2022-12-11T15:38:39.597Z,94.13
2022-12-11T15:41:43.223Z,94.06
2022-12-11T15:44:46.621Z,93.80
2022-12-11T15:47:49.796Z,93.79
2022-12-11T15:51:00.704Z,92.42
2022-12-11T15:54:04.744Z,93.67
2022-12-11T15:57:15.283Z,89.48
2022-12-11T16:00:21.896Z,91.48
2022-12-11T16:03:25.801Z,90.55
2022-12-11T16:06:28.831Z,89.92
2022-12-11T16:09:34.545Z,90.61
2022-12-11T16:12:37.218Z,90.19
2022-12-11T16:15:45.408Z,88.79
2022-12-11T16:18:48.342Z,90.51
2022-12-11T16:21:52.387Z,89.33
2022-12-11T16:24:55.585Z,88.90
2022-12-11T16:28:01.517Z,88.22
2022-12-11T16:31:04.131Z,89.61
2022-12-11T16:34:07.157Z,88.80
2022-12-11T16:37:10.278Z,88.55
2022-12-11T16:40:14.662Z,88.43
2022-12-11T16:43:17.409Z,89.10
2022-12-11T16:46:22.433Z,89.35
2022-12-11T16:49:25.368Z,87.14
2022-12-11T16:52:28.776Z,85.76
2022-12-11T16:55:31.655Z,85.99
2022-12-11T16:58:34.937Z,85.48
2022-12-11T17:01:41.141Z,86.95
2022-12-11T17:04:55.165Z,85.70
2022-12-11T17:08:05.323Z,85.21
2022-12-11T17:11:16.912Z,85.35
2022-12-11T17:14:20.450Z,84.49
2022-12-11T17:17:24.874Z,85.73
2022-12-11T17:20:35.326Z,85.97
2022-12-11T17:23:39.650Z,85.13
2022-12-11T17:26:44.793Z,83.86
2022-12-11T17:29:50.183Z,86.09
2022-12-11T17:32:58.786Z,85.56
2022-12-11T17:36:04.573Z,86.52
2022-12-11T17:39:10.274Z,84.14
2022-12-11T17:42:13.502Z,84.81
2022-12-11T17:45:16.121Z,84.42
2022-12-11T17:48:22.493Z,85.43
2022-12-11T17:51:25.809Z,83.88
2022-12-11T17:54:29.088Z,84.60
2022-12-11T17:57:31.859Z,83.98
2022-12-11T18:00:39.012Z,84.01
2022-12-11T18:03:45.489Z,83.25
2022-12-11T18:06:48.034Z,84.46
2022-12-11T18:09:56.890Z,84.19
2022-12-11T18:13:00.998Z,84.82
2022-12-11T18:16:08.394Z,84.72
2022-12-11T18:19:12.457Z,83.25
2022-12-11T18:22:15.521Z,85.16
2022-12-11T18:25:18.764Z,85.34
2022-12-11T18:28:22.795Z,84.32
2022-12-11T18:31:25.778Z,83.90
2022-12-11T18:34:32.603Z,84.28
2022-12-11T18:37:35.930Z,83.80
2022-12-11T18:40:41.246Z,84.96
2022-12-11T18:43:45.571Z,85.95
2022-12-11T18:46:52.849Z,86.60
2022-12-11T18:49:55.825Z,86.37
2022-12-11T18:52:58.816Z,86.93
2022-12-11T18:56:07.630Z,85.90
2022-12-11T18:59:15.715Z,86.82
2022-12-11T19:02:22.594Z,86.88
2022-12-11T19:05:30.769Z,88.25
2022-12-11T19:08:34.077Z,88.81
2022-12-11T19:11:43.538Z,88.63
2022-12-11T19:14:46.482Z,87.79
2022-12-11T19:17:49.699Z,87.45
2022-12-11T19:21:03.146Z,88.73
2022-12-11T19:24:16.956Z,87.85
2022-12-11T19:27:19.734Z,86.26
2022-12-11T19:30:23.860Z,87.40
2022-12-11T19:33:26.720Z,88.50
2022-12-11T19:36:30.883Z,89.28
2022-12-11T19:39:33.931Z,88.80
2022-12-11T19:42:39.545Z,88.62
2022-12-11T19:45:42.651Z,88.82
2022-12-11T19:48:48.446Z,89.43
2022-12-11T19:51:51.439Z,89.90
2022-12-11T19:54:57.011Z,88.81
2022-12-11T19:58:00.525Z,88.87
2022-12-11T20:01:07.581Z,90.57
2022-12-11T20:04:13.842Z,89.90
2022-12-11T20:07:16.861Z,89.42
2022-12-11T20:10:20.216Z,88.42
2022-12-11T20:13:23.280Z,89.01
2022-12-11T20:16:46.252Z,89.70
2022-12-11T20:19:52.290Z,90.60
2022-12-11T20:22:58.620Z,91.63
2022-12-11T20:26:22.805Z,92.67
2022-12-11T20:29:25.870Z,93.25
2022-12-11T20:32:28.480Z,93.87
2022-12-11T20:35:31.340Z,96.78
2022-12-11T20:38:34.728Z,98.01
2022-12-11T20:41:37.979Z,98.29
2022-12-11T20:44:45.706Z,97.16
2022-12-11T20:47:51.728Z,97.54
2022-12-11T20:51:00.481Z,97.56
2022-12-11T20:54:03.949Z,99.43
2022-12-11T20:57:06.738Z,99.78
2022-12-11T21:00:13.105Z,100.00
2022-12-11T21:03:16.054Z,99.39
2022-12-11T21:06:19.178Z,100.00
2022-12-11T21:09:24.684Z,99.26
2022-12-11T21:12:31.518Z,100.00
2022-12-11T21:15:38.990Z,99.01
2022-12-11T21:18:45.524Z,99.37
2022-12-11T21:21:49.190Z,98.61
2022-12-11T21:24:51.986Z,97.39
2022-12-11T21:27:54.624Z,99.98
2022-12-11T21:31:02.811Z,100.00
2022-12-11T21:34:05.797Z,100.00
2022-12-11T21:37:08.911Z,100.00
2022-12-11T21:40:13.787Z,99.71
2022-12-11T21:43:16.641Z,100.00
2022-12-11T21:46:22.067Z,100.00
2022-12-11T21:49:27.655Z,100.00
2022-12-11T21:52:31.010Z,99.96
2022-12-11T21:55:33.867Z,100.00
2022-12-11T21:58:38.830Z,100.00
2022-12-11T22:01:43.935Z,100.00
2022-12-11T22:04:47.512Z,100.00
2022-12-11T22:07:50.088Z,100.00
2022-12-11T22:10:53.728Z,100.00
2022-12-11T22:13:56.666Z,100.00
2022-12-11T22:16:59.629Z,100.00
2022-12-11T22:20:03.419Z,100.00
2022-12-11T22:23:06.392Z,100.00
2022-12-11T22:26:15.319Z,100.00
2022-12-11T22:29:18.248Z,100.00
2022-12-11T22:32:21.010Z,100.00
2022-12-11T22:35:27.140Z,100.00
2022-12-11T22:38:30.237Z,100.00
2022-12-11T22:41:33.199Z,100.00
2022-12-11T22:44:35.904Z,100.00
2022-12-11T22:47:39.310Z,100.00
2022-12-11T22:50:43.780Z,100.00
2022-12-11T22:53:47.344Z,100.00
2022-12-11T22:56:51.438Z,100.00
2022-12-11T22:59:54.758Z,100.00
2022-12-11T23:02:57.429Z,100.00
2022-12-11T23:06:05.028Z,100.00
2022-12-11T23:09:08.599Z,100.00
2022-12-11T23:12:11.628Z,100.00
2022-12-11T23:15:14.500Z,100.00
2022-12-11T23:18:17.710Z,100.00
2022-12-11T23:21:21.848Z,100.00
2022-12-11T23:24:24.818Z,100.00
2022-12-11T23:27:27.484Z,100.00
2022-12-11T23:30:30.633Z,100.00
2022-12-11T23:33:33.510Z,100.00
2022-12-11T23:36:37.504Z,100.00
2022-12-11T23:39:40.072Z,100.00
2022-12-11T23:42:42.993Z,100.00
2022-12-11T23:45:46.407Z,100.00
2022-12-11T23:48:50.331Z,100.00
2022-12-11T23:51:52.962Z,100.00
2022-12-11T23:54:55.822Z,100.00
2022-12-11T23:57:58.862Z,100.00
